createdAt,value
2018-03-06T00:02:12.203Z,26.13
2018-03-06T00:04:39.499Z,28.20
2018-03-06T00:07:06.781Z,24.27
2018-03-06T00:09:34.045Z,26.87
2018-03-06T00:12:01.337Z,28.73
2018-03-06T00:14:28.593Z,29.60
2018-03-06T00:16:55.881Z,26.97
2018-03-06T00:19:23.157Z,28.33
2018-03-06T00:21:50.447Z,28.57
2018-03-06T00:24:17.711Z,26.83
2018-03-06T00:26:44.973Z,29.07
2018-03-06T00:29:12.254Z,29.10
2018-03-06T00:31:39.520Z,28.27
2018-03-06T00:34:06.781Z,28.37
2018-03-06T00:36:34.065Z,28.53
2018-03-06T00:39:01.341Z,29.83
2018-03-06T00:41:28.637Z,30.43
2018-03-06T00:43:55.892Z,29.00
2018-03-06T00:46:23.157Z,29.77
2018-03-06T00:48:50.438Z,29.33
2018-03-06T00:51:17.736Z,33.73
2018-03-06T00:53:45.025Z,32.10
2018-03-06T00:56:12.291Z,31.83
2018-03-06T00:58:39.575Z,31.80
2018-03-06T01:01:06.840Z,34.00
2018-03-06T01:03:34.114Z,35.30
2018-03-06T01:06:01.444Z,36.00
2018-03-06T01:08:28.706Z,31.07
2018-03-06T01:10:55.979Z,31.80
2018-03-06T01:13:23.265Z,31.77
2018-03-06T01:15:50.528Z,29.67
2018-03-06T01:18:17.792Z,31.43
2018-03-06T01:20:45.082Z,31.67
2018-03-06T01:23:12.395Z,32.30
2018-03-06T01:25:39.661Z,30.37
2018-03-06T01:28:06.949Z,36.53
2018-03-06T01:30:34.237Z,32.43
2018-03-06T01:33:01.500Z,32.57
2018-03-06T01:35:28.768Z,36.50
2018-03-06T01:37:56.054Z,34.50
2018-03-06T01:40:23.312Z,32.57
2018-03-06T01:42:50.600Z,33.70
2018-03-06T01:45:17.866Z,35.77
2018-03-06T01:47:45.133Z,33.33
2018-03-06T01:50:12.432Z,35.60
2018-03-06T01:52:39.694Z,33.47
2018-03-06T01:55:06.951Z,36.30
2018-03-06T01:57:34.238Z,35.97
2018-03-06T02:00:01.540Z,36.00
2018-03-06T02:02:28.817Z,36.50
2018-03-06T02:04:56.077Z,38.60
2018-03-06T02:07:23.341Z,33.50
2018-03-06T02:09:50.629Z,36.10
2018-03-06T02:12:17.927Z,37.17
2018-03-06T02:14:45.228Z,33.63
2018-03-06T02:17:12.483Z,31.93
2018-03-06T02:19:39.742Z,33.10
2018-03-06T02:22:07.015Z,32.90
2018-03-06T02:24:34.309Z,37.77
2018-03-06T02:27:01.574Z,32.60
2018-03-06T02:29:28.847Z,34.73
2018-03-06T02:31:56.132Z,35.40
2018-03-06T02:34:23.392Z,34.43
2018-03-06T02:36:50.691Z,35.40
2018-03-06T02:39:17.959Z,34.53
2018-03-06T02:41:45.236Z,34.07
2018-03-06T02:44:12.528Z,33.83
2018-03-06T02:46:39.792Z,34.87
2018-03-06T02:49:07.084Z,36.57
2018-03-06T02:51:34.383Z,35.57
2018-03-06T02:54:01.665Z,35.23
2018-03-06T02:56:28.934Z,38.90
2018-03-06T02:58:56.192Z,38.20
2018-03-06T03:01:23.480Z,36.53
2018-03-06T03:03:50.744Z,38.83
2018-03-06T03:06:18.039Z,36.53
2018-03-06T03:08:45.295Z,35.20
2018-03-06T03:11:12.592Z,36.20
2018-03-06T03:13:39.862Z,37.63
2018-03-06T03:16:07.154Z,37.10
2018-03-06T03:18:34.429Z,38.13
2018-03-06T03:21:01.708Z,36.10
2018-03-06T03:23:28.989Z,36.23
2018-03-06T03:25:56.320Z,37.37
2018-03-06T03:28:23.609Z,35.03
2018-03-06T03:30:50.871Z,37.60
2018-03-06T03:33:18.158Z,36.60
2018-03-06T03:35:45.412Z,37.73
2018-03-06T03:38:12.700Z,37.77
2018-03-06T03:40:39.965Z,41.23
2018-03-06T03:43:07.241Z,36.57
2018-03-06T03:45:34.520Z,36.63
2018-03-06T03:48:01.785Z,36.30
2018-03-06T03:50:29.085Z,36.43
2018-03-06T03:52:56.357Z,35.50
2018-03-06T03:55:23.642Z,38.27
2018-03-06T03:57:50.906Z,36.10
2018-03-06T04:00:18.169Z,36.50
2018-03-06T04:02:45.459Z,36.30
2018-03-06T04:05:12.720Z,35.27
2018-03-06T04:07:40.013Z,38.33
2018-03-06T04:10:07.275Z,34.50
2018-03-06T04:12:34.564Z,33.70
2018-03-06T04:15:01.848Z,32.27
2018-03-06T04:17:29.114Z,33.07
2018-03-06T04:19:56.400Z,35.80
2018-03-06T04:22:23.668Z,35.37
2018-03-06T04:24:50.963Z,32.70
2018-03-06T04:27:18.241Z,36.53
2018-03-06T04:29:46.352Z,40.33
2018-03-06T04:32:13.618Z,34.37
2018-03-06T04:34:40.898Z,38.27
2018-03-06T04:37:08.161Z,35.17
2018-03-06T04:39:35.454Z,37.50
2018-03-06T04:42:02.722Z,34.70
2018-03-06T04:44:29.996Z,32.83
2018-03-06T04:46:57.288Z,32.13
2018-03-06T04:49:24.554Z,32.83
2018-03-06T04:51:51.841Z,31.07
2018-03-06T04:54:19.110Z,31.93
2018-03-06T04:56:46.368Z,33.60
2018-03-06T04:59:13.663Z,35.83
2018-03-06T05:01:40.927Z,31.57
2018-03-06T05:04:08.212Z,33.80
2018-03-06T05:06:35.480Z,38.00
2018-03-06T05:09:02.777Z,33.50
2018-03-06T05:11:30.041Z,35.67
2018-03-06T05:13:57.305Z,35.10
2018-03-06T05:16:24.584Z,39.40
2018-03-06T05:18:51.858Z,34.10
2018-03-06T05:21:19.124Z,37.20
2018-03-06T05:23:46.417Z,34.47
2018-03-06T05:26:13.680Z,34.60
2018-03-06T05:28:40.960Z,33.43
2018-03-06T05:31:08.252Z,34.00
2018-03-06T05:33:35.540Z,37.90
2018-03-06T05:36:02.818Z,34.50
2018-03-06T05:38:30.081Z,34.03
2018-03-06T05:40:57.368Z,33.47
2018-03-06T05:43:24.631Z,34.70
2018-03-06T05:45:51.901Z,37.67
2018-03-06T05:48:19.201Z,39.72
2018-03-06T05:50:46.464Z,34.10
2018-03-06T05:53:13.754Z,32.47
2018-03-06T05:55:41.046Z,32.20
2018-03-06T05:58:08.335Z,33.10
2018-03-06T06:00:35.603Z,33.60
2018-03-06T06:03:02.897Z,32.30
2018-03-06T06:05:30.159Z,31.40
2018-03-06T06:07:57.423Z,37.33
2018-03-06T06:10:24.709Z,33.57
2018-03-06T06:12:51.976Z,31.73
2018-03-06T06:15:19.237Z,31.93
2018-03-06T06:17:46.532Z,34.90
2018-03-06T06:20:13.822Z,33.63
2018-03-06T06:22:43.861Z,32.60
2018-03-06T06:25:11.144Z,33.03
2018-03-06T06:27:38.420Z,34.10
2018-03-06T06:30:05.712Z,32.37
2018-03-06T06:32:32.963Z,42.07
2018-03-06T06:35:00.231Z,39.00
2018-03-06T06:37:27.524Z,35.00
2018-03-06T06:39:54.798Z,32.43
2018-03-06T06:42:22.088Z,33.00
2018-03-06T06:44:49.388Z,33.80
2018-03-06T06:47:16.658Z,33.67
2018-03-06T06:49:43.933Z,35.80
2018-03-06T06:52:11.232Z,32.77
2018-03-06T06:54:38.492Z,34.50
2018-03-06T06:57:05.780Z,35.00
2018-03-06T06:59:33.040Z,33.43
2018-03-06T07:02:00.332Z,34.60
2018-03-06T07:04:27.619Z,35.10
2018-03-06T07:06:54.869Z,37.43
2018-03-06T07:09:22.156Z,33.00
2018-03-06T07:11:49.437Z,32.13
2018-03-06T07:14:16.735Z,32.70
2018-03-06T07:16:44.001Z,33.40
2018-03-06T07:19:11.264Z,36.47
2018-03-06T07:21:38.562Z,34.87
2018-03-06T07:24:06.734Z,41.73
2018-03-06T07:26:34.057Z,37.93
2018-03-06T07:29:01.292Z,37.23
2018-03-06T07:31:28.582Z,34.30
2018-03-06T07:33:55.848Z,34.33
2018-03-06T07:36:23.145Z,36.20
2018-03-06T07:38:50.413Z,35.90
2018-03-06T07:41:17.673Z,37.77
2018-03-06T07:43:44.956Z,38.10
2018-03-06T07:46:12.342Z,44.83
2018-03-06T07:48:39.601Z,44.17
2018-03-06T07:51:06.865Z,44.50
2018-03-06T07:53:34.160Z,44.77
2018-03-06T07:56:01.435Z,45.20
2018-03-06T07:58:29.077Z,43.80
2018-03-06T08:00:56.357Z,43.27
2018-03-06T08:03:23.679Z,44.50
2018-03-06T08:05:50.906Z,43.77
2018-03-06T08:08:18.171Z,43.00
2018-03-06T08:10:45.437Z,44.10
2018-03-06T08:13:12.730Z,45.30
2018-03-06T08:15:39.994Z,46.70
2018-03-06T08:18:07.297Z,44.33
2018-03-06T08:20:34.594Z,43.73
2018-03-06T08:23:01.863Z,42.63
2018-03-06T08:25:29.160Z,47.27
2018-03-06T08:27:56.438Z,45.13
2018-03-06T08:30:23.699Z,43.20
2018-03-06T08:32:50.995Z,42.70
2018-03-06T08:35:18.289Z,46.23
2018-03-06T08:37:45.553Z,47.53
2018-03-06T08:40:12.841Z,44.90
2018-03-06T08:42:40.107Z,45.93
2018-03-06T08:45:07.401Z,42.67
2018-03-06T08:47:34.701Z,43.90
2018-03-06T08:50:01.973Z,44.37
2018-03-06T08:52:29.241Z,45.13
2018-03-06T08:54:57.670Z,46.73
2018-03-06T08:57:24.950Z,41.07
2018-03-06T08:59:52.214Z,41.10
2018-03-06T09:02:19.516Z,42.23
2018-03-06T09:04:46.813Z,44.10
2018-03-06T09:07:14.232Z,45.50
2018-03-06T09:09:41.510Z,47.33
2018-03-06T09:12:08.814Z,45.97
2018-03-06T09:14:36.070Z,45.00
2018-03-06T09:17:03.339Z,46.83
2018-03-06T09:19:30.614Z,48.20
2018-03-06T09:21:57.913Z,49.50
2018-03-06T09:24:25.228Z,47.83
2018-03-06T09:26:52.480Z,46.53
2018-03-06T09:29:20.055Z,49.20
2018-03-06T09:31:47.317Z,47.00
2018-03-06T09:34:14.600Z,47.70
2018-03-06T09:36:41.860Z,49.90
2018-03-06T09:39:09.152Z,45.90
2018-03-06T09:41:36.466Z,47.57
2018-03-06T09:44:03.737Z,45.20
2018-03-06T09:46:30.990Z,44.77
2018-03-06T09:48:58.289Z,42.77
2018-03-06T09:51:25.552Z,46.37
2018-03-06T09:53:52.868Z,43.90
2018-03-06T09:56:20.146Z,44.30
2018-03-06T09:58:47.403Z,45.87
2018-03-06T10:01:14.697Z,43.50
2018-03-06T10:03:41.965Z,42.03
2018-03-06T10:06:09.266Z,41.97
2018-03-06T10:08:36.542Z,40.20
2018-03-06T10:11:04.036Z,42.20
2018-03-06T10:13:31.309Z,44.07
2018-03-06T10:15:58.582Z,42.97
2018-03-06T10:18:25.886Z,43.03
2018-03-06T10:20:53.185Z,43.83
2018-03-06T10:23:20.471Z,46.70
2018-03-06T10:25:47.766Z,43.00
2018-03-06T10:28:15.039Z,44.33
2018-03-06T10:30:42.334Z,44.40
2018-03-06T10:33:09.606Z,43.40
2018-03-06T10:35:36.887Z,43.53
2018-03-06T10:38:04.193Z,41.73
2018-03-06T10:40:31.456Z,45.60
2018-03-06T10:42:59.734Z,44.30
2018-03-06T10:45:27.005Z,42.60
2018-03-06T10:47:54.271Z,43.80
2018-03-06T10:50:21.566Z,41.30
2018-03-06T10:52:48.846Z,39.50
2018-03-06T10:55:16.194Z,43.17
2018-03-06T10:57:43.410Z,43.93
2018-03-06T11:00:10.714Z,44.80
2018-03-06T11:02:42.974Z,41.83
2018-03-06T11:05:10.255Z,42.60
2018-03-06T11:07:37.519Z,42.77
2018-03-06T11:10:04.821Z,44.20
2018-03-06T11:12:32.088Z,43.53
2018-03-06T11:14:59.357Z,42.90
2018-03-06T11:17:26.947Z,42.97
2018-03-06T11:19:54.201Z,42.23
2018-03-06T11:22:21.464Z,40.47
2018-03-06T11:24:48.770Z,39.40
2018-03-06T11:27:16.043Z,38.70
2018-03-06T11:29:43.302Z,37.20
2018-03-06T11:32:10.589Z,33.30
2018-03-06T11:34:37.866Z,35.00
2018-03-06T11:37:05.161Z,32.80
2018-03-06T11:39:32.450Z,32.93
2018-03-06T11:41:59.732Z,28.73
2018-03-06T11:44:26.985Z,25.73
2018-03-06T11:46:54.287Z,23.20
2018-03-06T11:49:21.556Z,23.80
2018-03-06T11:51:48.879Z,23.97
2018-03-06T11:54:16.132Z,24.87
2018-03-06T11:56:43.400Z,21.30
2018-03-06T11:59:10.666Z,23.30
2018-03-06T12:01:37.960Z,22.70
2018-03-06T12:04:05.243Z,23.80
2018-03-06T12:06:32.632Z,20.60
2018-03-06T12:08:59.966Z,22.50
2018-03-06T12:11:27.647Z,23.33
2018-03-06T12:13:54.914Z,22.47
2018-03-06T12:16:22.180Z,25.60
2018-03-06T12:18:49.489Z,26.93
2018-03-06T12:21:17.152Z,25.10
2018-03-06T12:23:44.461Z,27.43
2018-03-06T12:26:11.777Z,27.30
2018-03-06T12:28:39.244Z,26.33
2018-03-06T12:31:06.556Z,25.67
2018-03-06T12:33:33.873Z,24.93
2018-03-06T12:36:01.137Z,26.73
2018-03-06T12:38:28.452Z,27.20
2018-03-06T12:40:55.721Z,24.67
2018-03-06T12:43:22.986Z,24.03
2018-03-06T12:45:50.360Z,23.40
2018-03-06T12:48:17.658Z,21.57
2018-03-06T12:50:45.553Z,20.90
2018-03-06T12:53:12.849Z,19.90
2018-03-06T12:55:40.709Z,19.57
2018-03-06T12:58:07.993Z,18.60
2018-03-06T13:00:35.265Z,17.87
2018-03-06T13:03:02.580Z,15.50
2018-03-06T13:05:29.846Z,15.53
2018-03-06T13:07:57.109Z,16.63
2018-03-06T13:10:24.426Z,15.20
2018-03-06T13:12:51.699Z,16.07
2018-03-06T13:15:18.985Z,16.33
2018-03-06T13:17:46.256Z,15.77
2018-03-06T13:20:13.536Z,17.23
2018-03-06T13:22:40.809Z,16.50
2018-03-06T13:25:08.097Z,19.07
2018-03-06T13:27:35.365Z,16.77
2018-03-06T13:30:02.661Z,19.03
2018-03-06T13:32:29.920Z,20.30
2018-03-06T13:34:57.191Z,23.93
2018-03-06T13:37:24.473Z,23.60
2018-03-06T13:39:51.759Z,23.80
2018-03-06T13:42:19.032Z,24.80
2018-03-06T13:44:46.301Z,24.37
2018-03-06T13:47:13.598Z,25.70
2018-03-06T13:49:40.892Z,26.13
2018-03-06T13:52:08.257Z,22.17
2018-03-06T13:54:35.458Z,20.10
2018-03-06T13:57:02.726Z,20.53
2018-03-06T13:59:30.018Z,19.73
2018-03-06T14:01:57.286Z,20.60
2018-03-06T14:04:24.572Z,21.07
2018-03-06T14:06:51.836Z,21.73
2018-03-06T14:09:19.130Z,20.77
2018-03-06T14:11:47.004Z,21.27
2018-03-06T14:14:14.274Z,21.10
2018-03-06T14:16:41.561Z,30.97
2018-03-06T14:19:08.860Z,33.07
2018-03-06T14:21:36.121Z,30.70
2018-03-06T14:24:03.392Z,28.37
2018-03-06T14:26:30.674Z,30.47
2018-03-06T14:28:57.942Z,32.07
2018-03-06T14:31:25.209Z,33.80
2018-03-06T14:33:52.516Z,35.50
2018-03-06T14:36:20.124Z,35.57
2018-03-06T14:38:47.381Z,32.83
2018-03-06T14:41:14.643Z,33.93
2018-03-06T14:43:41.946Z,32.80
2018-03-06T14:46:09.204Z,31.53
2018-03-06T14:48:36.492Z,32.50
2018-03-06T14:51:03.784Z,34.00
2018-03-06T14:53:31.070Z,32.80
2018-03-06T14:55:58.349Z,32.57
2018-03-06T14:58:25.652Z,31.07
2018-03-06T15:00:52.920Z,33.03
2018-03-06T15:03:20.229Z,33.20
2018-03-06T15:05:47.513Z,31.70
2018-03-06T15:08:14.779Z,33.17
2018-03-06T15:10:42.073Z,32.30
2018-03-06T15:13:09.360Z,32.93
2018-03-06T15:15:36.629Z,89.83
2018-03-06T15:18:03.919Z,97.90
2018-03-06T15:20:31.186Z,35.00
2018-03-06T15:22:58.482Z,70.47
2018-03-06T15:25:25.779Z,122.33
2018-03-06T15:27:53.060Z,125.23
2018-03-06T15:30:20.360Z,104.40
2018-03-06T15:32:47.671Z,69.00
2018-03-06T15:35:14.943Z,49.77
2018-03-06T15:37:42.236Z,44.90
2018-03-06T15:40:09.504Z,36.77
2018-03-06T15:42:36.792Z,35.00
2018-03-06T15:45:04.071Z,50.93
2018-03-06T15:47:31.342Z,44.87
2018-03-06T15:49:58.638Z,53.27
2018-03-06T15:52:25.909Z,43.70
2018-03-06T15:54:53.197Z,43.13
2018-03-06T15:57:20.476Z,37.60
2018-03-06T15:59:47.765Z,35.73
2018-03-06T16:02:15.030Z,37.63
2018-03-06T16:04:42.324Z,36.33
2018-03-06T16:07:09.580Z,34.10
2018-03-06T16:09:36.877Z,33.07
2018-03-06T16:12:04.144Z,33.53
2018-03-06T16:14:31.433Z,32.30
2018-03-06T16:16:58.709Z,33.10
2018-03-06T16:19:25.997Z,31.43
2018-03-06T16:21:53.281Z,34.07
2018-03-06T16:24:20.548Z,32.70
2018-03-06T16:26:47.838Z,34.77
2018-03-06T16:29:15.096Z,32.70
2018-03-06T16:31:42.403Z,33.30
2018-03-06T16:34:09.696Z,32.77
2018-03-06T16:36:36.960Z,33.40
2018-03-06T16:39:04.249Z,31.93
2018-03-06T16:41:31.537Z,30.30
2018-03-06T16:43:58.804Z,34.80
2018-03-06T16:46:26.103Z,35.27
2018-03-06T16:48:53.367Z,33.33
2018-03-06T16:51:20.655Z,31.47
2018-03-06T16:53:47.953Z,30.57
2018-03-06T16:56:15.219Z,31.53
2018-03-06T16:58:42.567Z,32.93
2018-03-06T17:01:09.831Z,33.97
2018-03-06T17:03:37.144Z,32.43
2018-03-06T17:06:05.328Z,33.03
2018-03-06T17:08:32.593Z,30.47
2018-03-06T17:10:59.867Z,32.00
2018-03-06T17:13:27.154Z,30.50
2018-03-06T17:15:54.428Z,30.57
2018-03-06T17:18:21.704Z,32.33
2018-03-06T17:20:48.977Z,31.30
2018-03-06T17:23:16.292Z,32.90
2018-03-06T17:25:43.545Z,30.23
2018-03-06T17:28:10.812Z,32.77
2018-03-06T17:30:38.872Z,32.10
2018-03-06T17:33:06.121Z,32.93
2018-03-06T17:35:33.398Z,31.70
2018-03-06T17:38:00.706Z,33.70
2018-03-06T17:40:27.992Z,33.40
2018-03-06T17:42:55.293Z,33.97
2018-03-06T17:45:22.560Z,31.50
2018-03-06T17:47:49.877Z,33.10
2018-03-06T17:50:17.131Z,30.33
2018-03-06T17:52:44.407Z,33.13
2018-03-06T17:55:11.683Z,34.13
2018-03-06T17:57:38.944Z,35.30
2018-03-06T18:00:06.240Z,32.40
2018-03-06T18:02:33.504Z,35.73
2018-03-06T18:05:00.766Z,32.13
2018-03-06T18:07:28.557Z,31.60
2018-03-06T18:09:55.819Z,33.47
2018-03-06T18:12:23.073Z,34.77
2018-03-06T18:14:50.360Z,34.13
2018-03-06T18:17:17.629Z,36.07
2018-03-06T18:19:44.932Z,34.90
2018-03-06T18:22:12.222Z,31.87
2018-03-06T18:24:39.486Z,32.00
2018-03-06T18:27:06.786Z,37.80
2018-03-06T18:29:34.048Z,36.50
2018-03-06T18:32:01.314Z,35.83
2018-03-06T18:34:28.617Z,35.70
2018-03-06T18:36:55.887Z,35.50
2018-03-06T18:39:23.179Z,36.57
2018-03-06T18:41:50.437Z,37.90
2018-03-06T18:44:17.715Z,35.17
2018-03-06T18:46:45.021Z,36.77
2018-03-06T18:49:12.295Z,38.87
2018-03-06T18:51:39.591Z,37.97
2018-03-06T18:54:06.852Z,36.17
2018-03-06T18:56:34.120Z,35.87
2018-03-06T18:59:01.416Z,37.10
2018-03-06T19:01:43.557Z,39.70
2018-03-06T19:04:16.758Z,37.20
2018-03-06T19:06:44.024Z,36.87
2018-03-06T19:09:11.321Z,35.90
2018-03-06T19:11:38.584Z,40.20
2018-03-06T19:14:05.884Z,36.70
2018-03-06T19:16:33.178Z,42.37
2018-03-06T19:19:00.442Z,37.00
2018-03-06T19:21:27.735Z,37.27
2018-03-06T19:23:55.000Z,38.47
2018-03-06T19:26:22.280Z,37.43
2018-03-06T19:28:49.594Z,36.80
2018-03-06T19:31:16.860Z,39.20
2018-03-06T19:33:44.133Z,38.83
2018-03-06T19:36:11.438Z,40.70
2018-03-06T19:38:38.706Z,40.10
2018-03-06T19:41:06.001Z,40.60
2018-03-06T19:43:33.264Z,43.17
2018-03-06T19:46:00.533Z,41.93
2018-03-06T19:48:27.825Z,40.50
2018-03-06T19:50:55.106Z,42.70
2018-03-06T19:53:22.444Z,43.80
2018-03-06T19:55:49.732Z,42.60
2018-03-06T19:58:17.044Z,44.90
2018-03-06T20:00:44.316Z,44.13
2018-03-06T20:03:11.619Z,44.07
2018-03-06T20:05:38.991Z,43.70
2018-03-06T20:08:06.485Z,42.70
2018-03-06T20:10:33.756Z,41.80
2018-03-06T20:13:01.040Z,43.87
2018-03-06T20:15:28.395Z,42.37
2018-03-06T20:17:55.764Z,45.97
2018-03-06T20:20:23.074Z,47.03
2018-03-06T20:22:50.329Z,43.10
2018-03-06T20:25:23.281Z,42.73
2018-03-06T20:27:50.544Z,45.30
2018-03-06T20:30:23.610Z,46.37
2018-03-06T20:32:56.731Z,44.97
2018-03-06T20:35:24.018Z,44.80
2018-03-06T20:37:51.317Z,42.70
2018-03-06T20:40:24.317Z,41.77
2018-03-06T20:42:51.582Z,39.97
2018-03-06T20:45:18.871Z,41.57
2018-03-06T20:47:46.134Z,40.30
2018-03-06T20:50:13.401Z,42.23
2018-03-06T20:52:46.366Z,42.30
2018-03-06T20:55:13.739Z,37.27
2018-03-06T20:57:41.006Z,40.70
2018-03-06T21:00:08.295Z,32.77
2018-03-06T21:02:35.580Z,38.13
2018-03-06T21:05:02.845Z,34.13
2018-03-06T21:07:30.135Z,29.60
2018-03-06T21:09:57.396Z,29.80
2018-03-06T21:12:24.693Z,30.03
2018-03-06T21:14:51.997Z,29.70
2018-03-06T21:17:19.257Z,31.50
2018-03-06T21:19:46.525Z,28.73
2018-03-06T21:22:13.849Z,31.87
2018-03-06T21:24:41.117Z,28.60
2018-03-06T21:27:08.390Z,31.67
2018-03-06T21:29:35.681Z,34.37
2018-03-06T21:32:02.963Z,33.40
2018-03-06T21:34:30.241Z,33.07
2018-03-06T21:36:57.508Z,32.20
2018-03-06T21:39:24.778Z,33.37
2018-03-06T21:41:52.056Z,30.97
2018-03-06T21:44:19.320Z,32.37
2018-03-06T21:46:46.609Z,31.70
2018-03-06T21:49:13.917Z,27.47
2018-03-06T21:51:41.189Z,26.77
2018-03-06T21:54:08.453Z,24.83
2018-03-06T21:56:35.749Z,25.20
2018-03-06T21:59:03.042Z,24.20
2018-03-06T22:01:30.332Z,24.40
2018-03-06T22:03:57.634Z,26.43
2018-03-06T22:06:24.914Z,25.40
2018-03-06T22:08:52.221Z,27.93
2018-03-06T22:11:19.513Z,28.33
2018-03-06T22:13:46.776Z,24.10
2018-03-06T22:16:14.078Z,24.60
2018-03-06T22:18:41.352Z,24.20
2018-03-06T22:21:08.640Z,24.77
2018-03-06T22:23:35.936Z,23.47
2018-03-06T22:26:03.230Z,25.10
2018-03-06T22:28:30.591Z,23.57
2018-03-06T22:30:57.937Z,24.60
2018-03-06T22:33:25.206Z,22.97
2018-03-06T22:35:52.500Z,24.70
2018-03-06T22:38:19.793Z,24.63
2018-03-06T22:40:47.065Z,23.63
2018-03-06T22:43:14.420Z,25.00
2018-03-06T22:45:41.686Z,23.00
2018-03-06T22:48:08.958Z,23.60
2018-03-06T22:50:36.250Z,24.07
2018-03-06T22:53:03.534Z,26.80
2018-03-06T22:55:30.785Z,21.97
2018-03-06T22:57:58.087Z,23.20
2018-03-06T23:00:25.394Z,23.50
2018-03-06T23:02:52.756Z,21.90
2018-03-06T23:05:20.066Z,26.63
2018-03-06T23:07:47.328Z,23.60
2018-03-06T23:10:14.603Z,21.97
2018-03-06T23:12:41.878Z,21.90
2018-03-06T23:15:09.219Z,20.83
2018-03-06T23:17:36.503Z,23.67
2018-03-06T23:20:03.806Z,22.67
2018-03-06T23:22:31.081Z,24.03
2018-03-06T23:24:58.348Z,23.70
2018-03-06T23:27:25.647Z,23.43
2018-03-06T23:29:52.912Z,23.83
2018-03-06T23:32:20.208Z,23.20
2018-03-06T23:34:47.493Z,24.33
2018-03-06T23:37:14.814Z,27.10
2018-03-06T23:39:42.104Z,23.57
2018-03-06T23:42:09.394Z,22.40
2018-03-06T23:44:36.685Z,24.70
2018-03-06T23:47:03.961Z,22.60
2018-03-06T23:49:31.222Z,24.80
2018-03-06T23:51:58.515Z,32.07
2018-03-06T23:54:25.786Z,25.07
2018-03-06T23:56:53.081Z,23.67
2018-03-06T23:59:20.362Z,27.27
